Time;durP1;ratioP1;P1;durP2;ratioP2;P2;SDS_P1;SDS_P2;PMS_P1;PMS_P2;Temp;Humidity;BMP_temperature;BMP_pressure;BME280_temperature;BME280_humidity;BME280_pressure;Samples;Min_cycle;Max_cycle;Signal;HPM_P1;HPM_P2
2023/05/17 00:01:42;;;;;;;;;;;10.80;99.90;;;;;;7329070;19;110315;-64
2023/05/17 00:04:09;;;;;;;;;;;10.80;99.90;;;;;;7331368;19;110486;-64
2023/05/17 00:06:37;;;;;;;;;;;10.80;99.90;;;;;;7331787;19;112036;-64
2023/05/17 00:09:04;;;;;;;;;;;10.80;99.90;;;;;;7329330;19;110536;-64
2023/05/17 00:11:31;;;;;;;;;;;10.70;99.90;;;;;;7336984;19;109413;-65
2023/05/17 00:13:58;;;;;;;;;;;10.70;99.90;;;;;;7325950;19;110393;-67
2023/05/17 00:16:25;;;;;;;;;;;10.70;99.90;;;;;;7333406;19;110509;-64
2023/05/17 00:21:22;;;;;;;;;;;10.70;99.90;;;;;;7324797;19;110162;-87
2023/05/17 00:23:49;;;;;;;;;;;10.60;99.90;;;;;;7325126;19;111222;-87
2023/05/17 00:26:16;;;;;;;;;;;10.60;99.90;;;;;;7325341;19;111784;-87
2023/05/17 00:28:44;;;;;;;;;;;10.60;99.90;;;;;;7320855;19;112073;-87
2023/05/17 00:31:11;;;;;;;;;;;10.60;99.90;;;;;;7327258;19;109746;-87
2023/05/17 00:33:38;;;;;;;;;;;10.50;99.90;;;;;;7327488;19;112843;-87
2023/05/17 00:36:05;;;;;;;;;;;10.50;99.90;;;;;;7327614;19;111159;-87
2023/05/17 00:38:32;;;;;;;;;;;10.50;99.90;;;;;;7324686;19;110395;-87
2023/05/17 00:40:59;;;;;;;;;;;10.40;99.90;;;;;;7325755;19;113934;-87
2023/05/17 00:43:27;;;;;;;;;;;10.40;99.90;;;;;;7324124;19;110159;-87
2023/05/17 00:45:54;;;;;;;;;;;10.40;99.90;;;;;;7330889;19;110787;-87
2023/05/17 00:48:24;;;;;;;;;;;10.40;99.90;;;;;;7331488;19;111400;-87
2023/05/17 00:50:52;;;;;;;;;;;10.30;99.90;;;;;;7330491;19;113277;-87
2023/05/17 00:53:19;;;;;;;;;;;10.30;99.90;;;;;;7338858;19;111796;-86
2023/05/17 00:55:46;;;;;;;;;;;10.30;99.90;;;;;;7336722;19;110542;-64
2023/05/17 00:58:14;;;;;;;;;;;10.30;99.90;;;;;;7336709;19;111344;-63
2023/05/17 01:00:41;;;;;;;;;;;10.20;99.90;;;;;;7335107;19;111975;-63
2023/05/17 01:03:08;;;;;;;;;;;10.20;99.90;;;;;;7335744;19;111418;-64
2023/05/17 01:05:35;;;;;;;;;;;10.10;99.90;;;;;;7336253;19;109592;-63
2023/05/17 01:08:02;;;;;;;;;;;10.10;99.90;;;;;;7335659;19;110483;-63
2023/05/17 01:10:42;;;;;;;;;;;10.00;99.90;;;;;;7338219;19;110544;-64
2023/05/17 01:13:19;;;;;;;;;;;9.90;99.90;;;;;;7337092;19;109610;-63
2023/05/17 01:15:50;;;;;;;;;;;9.80;99.90;;;;;;7344287;19;111438;-63
2023/05/17 01:18:31;;;;;;;;;;;9.70;99.90;;;;;;7334019;19;110820;-63
2023/05/17 01:21:00;;;;;;;;;;;9.60;99.90;;;;;;7336795;19;110400;-65
2023/05/17 01:23:33;;;;;;;;;;;9.60;99.90;;;;;;7335805;19;109910;-63
2023/05/17 01:26:17;;;;;;;;;;;9.60;99.90;;;;;;7334372;19;110903;-63
2023/05/17 01:28:46;;;;;;;;;;;9.50;99.90;;;;;;7338039;19;111428;-63
2023/05/17 01:31:13;;;;;;;;;;;9.40;99.90;;;;;;7333562;19;110571;-63
2023/05/17 01:33:40;;;;;;;;;;;9.30;99.90;;;;;;7338145;19;111641;-63
2023/05/17 01:36:08;;;;;;;;;;;9.30;99.90;;;;;;7331632;19;110750;-63
2023/05/17 01:38:35;;;;;;;;;;;9.30;99.90;;;;;;7343807;19;111049;-63
2023/05/17 01:41:20;;;;;;;;;;;9.40;99.90;;;;;;7334304;19;110030;-63
2023/05/17 01:43:53;;;;;;;;;;;9.40;99.90;;;;;;7335232;19;109623;-63
2023/05/17 01:46:25;;;;;;;;;;;9.40;99.90;;;;;;7333548;19;113507;-63
2023/05/17 01:49:02;;;;;;;;;;;9.40;99.90;;;;;;7335799;19;110138;-63
2023/05/17 01:51:32;;;;;;;;;;;9.30;99.90;;;;;;7332539;19;110109;-63
2023/05/17 01:54:01;;;;;;;;;;;9.10;99.90;;;;;;7333216;19;111259;-63
2023/05/17 01:56:33;;;;;;;;;;;9.10;99.90;;;;;;7336283;19;110129;-63
2023/05/17 01:59:01;;;;;;;;;;;9.10;99.90;;;;;;7330232;19;109545;-63
2023/05/17 02:01:31;;;;;;;;;;;9.10;99.90;;;;;;7338824;19;112827;-64
2023/05/17 02:03:58;;;;;;;;;;;9.10;99.90;;;;;;7336298;19;109665;-63
2023/05/17 02:06:25;;;;;;;;;;;9.10;99.90;;;;;;7336880;19;109973;-63
2023/05/17 02:08:52;;;;;;;;;;;9.10;99.90;;;;;;7332591;19;110153;-63
2023/05/17 02:11:19;;;;;;;;;;;9.10;99.90;;;;;;7336888;19;110258;-63
2023/05/17 02:13:46;;;;;;;;;;;9.10;99.90;;;;;;7333367;19;111542;-63
2023/05/17 02:16:13;;;;;;;;;;;9.00;99.90;;;;;;7331096;19;110259;-63
2023/05/17 02:18:40;;;;;;;;;;;9.00;99.90;;;;;;7335318;19;110150;-63
2023/05/17 02:21:08;;;;;;;;;;;9.00;99.90;;;;;;7335678;19;109887;-64
2023/05/17 02:23:35;;;;;;;;;;;9.00;99.90;;;;;;7340592;19;111271;-63
2023/05/17 02:26:02;;;;;;;;;;;9.00;99.90;;;;;;7332089;19;110794;-63
2023/05/17 02:28:29;;;;;;;;;;;9.00;99.90;;;;;;7335166;19;112676;-63
2023/05/17 02:30:56;;;;;;;;;;;8.90;99.90;;;;;;7332142;19;109416;-63
2023/05/17 02:33:23;;;;;;;;;;;8.90;99.90;;;;;;7333598;19;111394;-62
2023/05/17 02:35:51;;;;;;;;;;;8.90;99.90;;;;;;7329036;19;112072;-63
2023/05/17 02:38:18;;;;;;;;;;;8.90;99.90;;;;;;7335272;19;115205;-63
2023/05/17 02:40:45;;;;;;;;;;;8.80;99.90;;;;;;7333785;19;109779;-63
2023/05/17 02:43:12;;;;;;;;;;;8.80;99.90;;;;;;7332498;19;110983;-63
2023/05/17 02:45:39;;;;;;;;;;;8.80;99.90;;;;;;7338581;19;109771;-63
2023/05/17 02:48:06;;;;;;;;;;;8.80;99.90;;;;;;7332562;19;110178;-63
2023/05/17 02:50:33;;;;;;;;;;;8.70;99.90;;;;;;7333790;19;110075;-63
2023/05/17 02:53:00;;;;;;;;;;;8.70;99.90;;;;;;7333663;19;109769;-63
2023/05/17 02:55:27;;;;;;;;;;;8.70;99.90;;;;;;7332547;19;110502;-63
2023/05/17 02:57:55;;;;;;;;;;;8.70;99.90;;;;;;7333946;19;112266;-63
2023/05/17 03:00:23;;;;;;;;;;;8.70;99.90;;;;;;7333114;19;109318;-63
2023/05/17 03:02:50;;;;;;;;;;;8.70;99.90;;;;;;7332365;19;110393;-67
2023/05/17 03:05:17;;;;;;;;;;;8.70;99.90;;;;;;7336366;19;109933;-67
2023/05/17 03:07:44;;;;;;;;;;;8.70;99.90;;;;;;7333779;19;110169;-67
2023/05/17 03:10:11;;;;;;;;;;;8.60;99.90;;;;;;7331149;19;110284;-67
2023/05/17 03:12:38;;;;;;;;;;;8.50;99.90;;;;;;7334713;19;109924;-67
2023/05/17 03:15:06;;;;;;;;;;;8.40;99.90;;;;;;7332726;19;111801;-67
2023/05/17 03:17:33;;;;;;;;;;;8.40;99.90;;;;;;7332799;19;112279;-67
2023/05/17 03:20:00;;;;;;;;;;;8.30;99.90;;;;;;7334238;19;109466;-67
2023/05/17 03:22:27;;;;;;;;;;;8.30;99.90;;;;;;7335893;19;110397;-68
2023/05/17 03:24:54;;;;;;;;;;;8.30;99.90;;;;;;7331680;19;110758;-67
2023/05/17 03:27:22;;;;;;;;;;;8.30;99.90;;;;;;7337890;19;109854;-67
2023/05/17 03:29:49;;;;;;;;;;;8.40;99.90;;;;;;7330378;19;109719;-67
2023/05/17 03:32:16;;;;;;;;;;;8.40;99.90;;;;;;7332761;19;111733;-66
2023/05/17 03:34:43;;;;;;;;;;;8.40;99.90;;;;;;7335882;19;110069;-67
2023/05/17 03:37:11;;;;;;;;;;;8.40;99.90;;;;;;7329193;19;110251;-67
2023/05/17 03:39:38;;;;;;;;;;;8.40;99.90;;;;;;7335808;19;109709;-67
2023/05/17 03:42:05;;;;;;;;;;;8.40;99.90;;;;;;7328117;19;111167;-69
2023/05/17 03:44:32;;;;;;;;;;;8.40;99.90;;;;;;7333777;19;109331;-72
2023/05/17 03:46:59;;;;;;;;;;;8.40;99.90;;;;;;7331313;19;111683;-72
2023/05/17 03:49:26;;;;;;;;;;;8.30;99.90;;;;;;7339485;19;110151;-72
2023/05/17 03:51:53;;;;;;;;;;;8.30;99.90;;;;;;7333252;19;111722;-68
2023/05/17 03:54:20;;;;;;;;;;;8.30;99.90;;;;;;7335547;19;111167;-72
2023/05/17 03:56:49;;;;;;;;;;;8.40;99.90;;;;;;7332316;19;109636;-73
2023/05/17 03:59:16;;;;;;;;;;;8.40;99.90;;;;;;7335403;19;109672;-73
2023/05/17 04:01:44;;;;;;;;;;;8.50;99.90;;;;;;7331391;19;112260;-71
2023/05/17 04:04:11;;;;;;;;;;;8.50;99.90;;;;;;7329793;19;110734;-67
2023/05/17 04:06:39;;;;;;;;;;;8.60;99.90;;;;;;7334484;19;113413;-70
2023/05/17 04:09:09;;;;;;;;;;;8.70;99.90;;;;;;7329699;19;111441;-67
2023/05/17 04:11:37;;;;;;;;;;;8.70;99.90;;;;;;7334443;19;110589;-67
2023/05/17 04:14:04;;;;;;;;;;;8.70;99.90;;;;;;7331683;19;110737;-67
2023/05/17 04:16:31;;;;;;;;;;;8.70;99.90;;;;;;7329569;19;110990;-67
2023/05/17 04:19:00;;;;;;;;;;;8.80;99.90;;;;;;7333447;19;109669;-67
2023/05/17 04:21:28;;;;;;;;;;;8.80;99.90;;;;;;7325823;19;110919;-67
2023/05/17 04:23:55;;;;;;;;;;;8.90;99.90;;;;;;7330480;19;109816;-68
2023/05/17 04:26:22;;;;;;;;;;;8.90;99.90;;;;;;7324919;19;109297;-67
2023/05/17 04:28:49;;;;;;;;;;;9.00;99.90;;;;;;7332106;19;110745;-68
2023/05/17 04:31:17;;;;;;;;;;;9.00;99.90;;;;;;7328640;19;111566;-67
2023/05/17 04:33:44;;;;;;;;;;;9.00;99.90;;;;;;7338337;19;110043;-68
2023/05/17 04:36:11;;;;;;;;;;;9.10;99.90;;;;;;7329904;19;109961;-67
2023/05/17 04:38:41;;;;;;;;;;;9.10;99.90;;;;;;7331545;19;110714;-67
2023/05/17 04:41:08;;;;;;;;;;;9.20;99.90;;;;;;7328757;19;110340;-68
2023/05/17 04:43:35;;;;;;;;;;;9.20;99.90;;;;;;7329146;19;109723;-67
2023/05/17 04:46:04;;;;;;;;;;;9.30;99.90;;;;;;7325993;19;110070;-67
2023/05/17 04:48:31;;;;;;;;;;;9.40;99.90;;;;;;7331723;19;110303;-68
2023/05/17 04:51:01;;;;;;;;;;;9.40;99.90;;;;;;7327731;19;109417;-67
2023/05/17 04:53:28;;;;;;;;;;;9.50;99.90;;;;;;7335806;19;111141;-72
2023/05/17 04:55:55;;;;;;;;;;;9.50;99.90;;;;;;7329894;19;110513;-74
2023/05/17 04:58:25;;;;;;;;;;;9.60;99.90;;;;;;7332529;19;110612;-75
2023/05/17 05:00:52;;;;;;;;;;;9.70;99.90;;;;;;7329518;19;113392;-69
2023/05/17 05:03:21;;;;;;;;;;;9.80;99.90;;;;;;7333790;19;109417;-85
2023/05/17 05:05:48;;;;;;;;;;;9.90;99.90;;;;;;7332692;19;113515;-85
2023/05/17 05:08:16;;;;;;;;;;;10.00;99.90;;;;;;7330999;19;114300;-85
2023/05/17 05:10:50;;;;;;;;;;;10.00;99.90;;;;;;7326640;19;110963;-68
2023/05/17 05:13:17;;;;;;;;;;;10.00;99.90;;;;;;7323334;19;111293;-68
2023/05/17 05:15:44;;;;;;;;;;;10.10;99.90;;;;;;7336278;19;110217;-68
2023/05/17 05:18:11;;;;;;;;;;;10.30;99.90;;;;;;7327651;19;110179;-68
2023/05/17 05:20:38;;;;;;;;;;;10.40;99.90;;;;;;7328488;19;114537;-68
2023/05/17 05:23:05;;;;;;;;;;;10.50;99.90;;;;;;7329725;19;110142;-68
2023/05/17 05:25:33;;;;;;;;;;;10.70;99.90;;;;;;7331196;19;109592;-70
2023/05/17 05:28:00;;;;;;;;;;;10.80;99.90;;;;;;7326667;19;111029;-67
2023/05/17 05:30:27;;;;;;;;;;;10.90;99.90;;;;;;7327166;19;109399;-68
2023/05/17 05:32:54;;;;;;;;;;;11.00;99.90;;;;;;7325135;19;109915;-68
2023/05/17 05:35:27;;;;;;;;;;;11.10;99.90;;;;;;7335743;19;111142;-68
2023/05/17 05:37:56;;;;;;;;;;;11.20;99.90;;;;;;7339957;19;111113;-68
2023/05/17 05:40:23;;;;;;;;;;;11.20;99.90;;;;;;7332021;19;113042;-68
2023/05/17 05:42:51;;;;;;;;;;;11.30;99.90;;;;;;7338042;19;110038;-68
2023/05/17 05:45:18;;;;;;;;;;;11.50;99.90;;;;;;7335370;19;109839;-68
2023/05/17 05:47:45;;;;;;;;;;;11.70;99.90;;;;;;7334440;19;110773;-67
2023/05/17 05:50:12;;;;;;;;;;;11.80;99.90;;;;;;7340678;19;109978;-67
2023/05/17 05:52:39;;;;;;;;;;;11.90;99.90;;;;;;7336176;19;110161;-68
2023/05/17 05:55:06;;;;;;;;;;;12.10;99.90;;;;;;7332814;19;110257;-67
2023/05/17 05:57:34;;;;;;;;;;;12.20;99.90;;;;;;7337401;19;111758;-68
2023/05/17 06:00:03;;;;;;;;;;;12.30;99.90;;;;;;7338176;19;109936;-68
2023/05/17 06:02:30;;;;;;;;;;;12.40;99.90;;;;;;7335574;19;110014;-63
2023/05/17 06:04:57;;;;;;;;;;;12.60;99.90;;;;;;7335117;19;109816;-62
2023/05/17 06:07:24;;;;;;;;;;;12.60;99.90;;;;;;7334893;19;110269;-62
2023/05/17 06:09:52;;;;;;;;;;;12.80;99.90;;;;;;7337137;19;109359;-62
2023/05/17 06:12:19;;;;;;;;;;;13.00;99.90;;;;;;7333640;19;110446;-63
2023/05/17 06:14:46;;;;;;;;;;;13.10;99.90;;;;;;7333838;19;110511;-62
2023/05/17 06:17:13;;;;;;;;;;;13.10;99.90;;;;;;7337436;19;109569;-63
2023/05/17 06:19:40;;;;;;;;;;;13.20;99.90;;;;;;7336309;19;111498;-62
2023/05/17 06:22:07;;;;;;;;;;;13.30;99.90;;;;;;7342519;19;111336;-62
2023/05/17 06:24:34;;;;;;;;;;;13.30;99.90;;;;;;7336790;19;110587;-62
2023/05/17 06:27:01;;;;;;;;;;;13.40;99.90;;;;;;7335947;19;110403;-63
2023/05/17 06:29:28;;;;;;;;;;;13.50;99.90;;;;;;7336611;19;110995;-62
2023/05/17 06:31:56;;;;;;;;;;;13.50;99.90;;;;;;7336600;19;109906;-63
2023/05/17 06:34:24;;;;;;;;;;;13.50;99.90;;;;;;7336534;19;110846;-62
2023/05/17 06:36:51;;;;;;;;;;;13.60;99.90;;;;;;7339055;19;109661;-63
2023/05/17 06:39:18;;;;;;;;;;;13.70;99.90;;;;;;7335113;19;109464;-63
2023/05/17 06:41:45;;;;;;;;;;;13.70;99.90;;;;;;7336875;19;110136;-62
2023/05/17 06:44:12;;;;;;;;;;;13.70;99.90;;;;;;7335916;19;111021;-62
2023/05/17 06:46:39;;;;;;;;;;;13.70;99.90;;;;;;7334267;19;110072;-63
2023/05/17 06:49:07;;;;;;;;;;;13.70;99.90;;;;;;7337828;19;109980;-63
2023/05/17 06:51:34;;;;;;;;;;;13.80;99.90;;;;;;7333451;19;109907;-62
2023/05/17 06:54:01;;;;;;;;;;;13.90;99.90;;;;;;7334964;19;110531;-62
2023/05/17 06:56:28;;;;;;;;;;;14.00;99.90;;;;;;7336927;19;110091;-62
2023/05/17 06:58:55;;;;;;;;;;;14.10;99.90;;;;;;7337263;19;111370;-63
2023/05/17 07:01:23;;;;;;;;;;;14.20;99.90;;;;;;7334416;19;111044;-63
2023/05/17 07:03:50;;;;;;;;;;;14.20;99.90;;;;;;7343009;19;109549;-63
2023/05/17 07:06:17;;;;;;;;;;;14.40;99.90;;;;;;7333455;19;111039;-63
2023/05/17 07:08:45;;;;;;;;;;;14.50;99.90;;;;;;7336858;19;109477;-62
2023/05/17 07:11:12;;;;;;;;;;;14.70;99.90;;;;;;7332342;19;110567;-63
2023/05/17 07:13:39;;;;;;;;;;;14.80;99.90;;;;;;7334814;19;110577;-63
2023/05/17 07:16:07;;;;;;;;;;;14.90;99.90;;;;;;7336264;19;109618;-63
2023/05/17 07:18:34;;;;;;;;;;;15.00;99.90;;;;;;7333277;19;110661;-63
2023/05/17 07:21:01;;;;;;;;;;;15.10;99.90;;;;;;7335041;19;110276;-63
2023/05/17 07:23:28;;;;;;;;;;;15.10;99.90;;;;;;7332669;19;109631;-63
2023/05/17 07:25:55;;;;;;;;;;;15.10;99.90;;;;;;7339101;19;110532;-63
2023/05/17 07:28:22;;;;;;;;;;;15.10;99.90;;;;;;7334846;19;109994;-63
2023/05/17 07:30:53;;;;;;;;;;;15.00;99.90;;;;;;7334342;19;109976;-63
2023/05/17 07:33:20;;;;;;;;;;;15.00;99.90;;;;;;7334244;19;110127;-63
2023/05/17 07:35:47;;;;;;;;;;;15.10;99.90;;;;;;7332751;19;110835;-63
2023/05/17 07:38:14;;;;;;;;;;;15.00;99.90;;;;;;7335682;19;109436;-63
2023/05/17 07:40:42;;;;;;;;;;;15.00;99.90;;;;;;7333536;19;112035;-63
2023/05/17 07:43:09;;;;;;;;;;;14.80;99.90;;;;;;7334320;19;109324;-63
2023/05/17 07:45:36;;;;;;;;;;;14.70;99.90;;;;;;7331721;19;110851;-63
2023/05/17 07:48:03;;;;;;;;;;;14.70;99.90;;;;;;7338333;19;111084;-63
2023/05/17 07:50:31;;;;;;;;;;;14.70;99.90;;;;;;7333402;19;110904;-63
2023/05/17 07:52:58;;;;;;;;;;;14.70;99.90;;;;;;7331601;19;110112;-63
2023/05/17 07:55:25;;;;;;;;;;;14.60;99.90;;;;;;7337362;19;109730;-63
2023/05/17 07:57:53;;;;;;;;;;;14.80;99.90;;;;;;7335320;19;110215;-63
2023/05/17 08:00:21;;;;;;;;;;;14.90;99.90;;;;;;7333936;19;110192;-63
2023/05/17 08:02:48;;;;;;;;;;;15.10;99.90;;;;;;7330614;19;112557;-63
2023/05/17 08:05:15;;;;;;;;;;;15.10;99.90;;;;;;7333045;19;109536;-63
2023/05/17 08:07:42;;;;;;;;;;;15.10;99.90;;;;;;7332451;19;110210;-63
2023/05/17 08:10:09;;;;;;;;;;;15.10;99.90;;;;;;7339213;19;109855;-63
2023/05/17 08:12:37;;;;;;;;;;;15.10;99.90;;;;;;7332084;19;111072;-62
2023/05/17 08:15:04;;;;;;;;;;;15.20;99.90;;;;;;7332877;19;109945;-62
2023/05/17 08:17:31;;;;;;;;;;;15.10;99.90;;;;;;7333478;19;110421;-62
2023/05/17 08:19:58;;;;;;;;;;;15.20;99.90;;;;;;7330396;19;110942;-62
2023/05/17 08:22:26;;;;;;;;;;;15.20;99.90;;;;;;7334434;19;109994;-62
2023/05/17 08:24:56;;;;;;;;;;;15.30;99.90;;;;;;7333278;19;109839;-62
2023/05/17 08:27:24;;;;;;;;;;;15.20;99.90;;;;;;7330851;19;111147;-62
2023/05/17 08:29:53;;;;;;;;;;;15.40;99.90;;;;;;7332362;19;110300;-62
2023/05/17 08:32:22;;;;;;;;;;;15.50;99.90;;;;;;7336223;19;109779;-62
2023/05/17 08:34:49;;;;;;;;;;;15.40;99.90;;;;;;7332233;19;111223;-62
2023/05/17 08:37:17;;;;;;;;;;;15.60;99.90;;;;;;7333515;19;109870;-62
2023/05/17 08:39:44;;;;;;;;;;;15.80;99.90;;;;;;7331170;19;110130;-62
2023/05/17 08:42:11;;;;;;;;;;;15.90;99.90;;;;;;7332185;19;111450;-62
2023/05/17 08:44:38;;;;;;;;;;;15.80;99.90;;;;;;7330996;19;109906;-62
2023/05/17 08:47:08;;;;;;;;;;;15.80;99.90;;;;;;7330084;19;110704;-62
2023/05/17 08:49:38;;;;;;;;;;;15.70;99.90;;;;;;7332530;19;110046;-61
2023/05/17 08:52:08;;;;;;;;;;;15.50;99.90;;;;;;7330110;19;109753;-69
2023/05/17 08:54:36;;;;;;;;;;;15.40;99.90;;;;;;7338984;19;111134;-69
2023/05/17 08:57:05;;;;;;;;;;;15.30;99.90;;;;;;7330954;19;110284;-67
2023/05/17 08:59:33;;;;;;;;;;;15.30;99.90;;;;;;7331380;19;111048;-68
2023/05/17 09:02:01;;;;;;;;;;;15.30;99.90;;;;;;7332859;19;111361;-62
2023/05/17 09:04:29;;;;;;;;;;;15.40;99.90;;;;;;7330501;19;113421;-64
2023/05/17 09:06:57;;;;;;;;;;;15.60;99.90;;;;;;7331514;19;110544;-65
2023/05/17 09:09:25;;;;;;;;;;;15.70;99.90;;;;;;7337674;19;109744;-63
2023/05/17 09:11:52;;;;;;;;;;;15.60;99.90;;;;;;7339048;19;110641;-65
2023/05/17 09:14:19;;;;;;;;;;;15.60;99.90;;;;;;7343670;19;111062;-62
2023/05/17 09:16:47;;;;;;;;;;;15.60;99.90;;;;;;7339730;19;112595;-62
2023/05/17 09:19:15;;;;;;;;;;;15.70;99.90;;;;;;7336699;19;111059;-62
2023/05/17 09:21:49;;;;;;;;;;;15.80;99.90;;;;;;7338718;19;113094;-62
2023/05/17 09:24:19;;;;;;;;;;;16.00;99.90;;;;;;7341057;19;109892;-62
2023/05/17 09:26:46;;;;;;;;;;;16.10;99.90;;;;;;7336206;19;110944;-62
2023/05/17 09:29:14;;;;;;;;;;;16.20;99.90;;;;;;7337501;19;111332;-63
2023/05/17 09:31:42;;;;;;;;;;;16.20;99.90;;;;;;7337285;19;109908;-64
2023/05/17 09:34:09;;;;;;;;;;;16.30;99.90;;;;;;7338938;19;111699;-62
2023/05/17 09:36:37;;;;;;;;;;;16.40;99.90;;;;;;7341275;19;110744;-61
2023/05/17 09:39:06;;;;;;;;;;;16.50;99.90;;;;;;7338576;19;110834;-63
2023/05/17 09:41:45;;;;;;;;;;;16.60;99.90;;;;;;7338156;19;109212;-61
2023/05/17 09:44:13;;;;;;;;;;;16.50;99.90;;;;;;7339483;19;110618;-62
2023/05/17 09:46:46;;;;;;;;;;;16.50;99.40;;;;;;7335786;19;111920;-62
2023/05/17 09:49:14;;;;;;;;;;;16.60;99.90;;;;;;7339391;19;111807;-62
2023/05/17 09:51:42;;;;;;;;;;;16.50;99.20;;;;;;7337591;19;110469;-62
2023/05/17 09:54:09;;;;;;;;;;;16.50;99.70;;;;;;7338457;19;110202;-62
2023/05/17 09:56:37;;;;;;;;;;;16.50;98.50;;;;;;7336236;19;111437;-62
2023/05/17 09:59:10;;;;;;;;;;;16.50;99.00;;;;;;7342520;19;110848;-61
2023/05/17 10:01:39;;;;;;;;;;;16.50;99.30;;;;;;7337937;19;109752;-62
2023/05/17 10:04:08;;;;;;;;;;;16.50;98.90;;;;;;7337084;19;109646;-61
2023/05/17 10:06:37;;;;;;;;;;;16.40;97.70;;;;;;7337853;19;110096;-62
2023/05/17 10:09:15;;;;;;;;;;;16.50;98.60;;;;;;7337305;19;109573;-62
2023/05/17 10:11:45;;;;;;;;;;;16.40;98.40;;;;;;7335470;19;110082;-62
2023/05/17 10:14:17;;;;;;;;;;;16.30;98.10;;;;;;7339337;19;111100;-62
2023/05/17 10:16:45;;;;;;;;;;;16.30;98.70;;;;;;7335342;19;110865;-63
2023/05/17 10:19:12;;;;;;;;;;;16.50;98.50;;;;;;7333839;19;110265;-63
2023/05/17 10:21:42;;;;;;;;;;;16.60;98.30;;;;;;7343093;19;111348;-62
2023/05/17 10:24:10;;;;;;;;;;;16.70;98.20;;;;;;7335438;19;111179;-62
2023/05/17 10:26:37;;;;;;;;;;;16.70;97.90;;;;;;7337103;19;111249;-63
2023/05/17 10:29:04;;;;;;;;;;;16.90;98.70;;;;;;7329863;19;109679;-63
2023/05/17 10:31:32;;;;;;;;;;;17.00;97.40;;;;;;7336596;19;109805;-62
2023/05/17 10:34:00;;;;;;;;;;;16.90;96.80;;;;;;7333844;19;110158;-62
2023/05/17 10:36:28;;;;;;;;;;;16.90;96.40;;;;;;7336939;19;109314;-62
2023/05/17 10:38:56;;;;;;;;;;;16.90;96.20;;;;;;7334444;19;110816;-62
2023/05/17 10:41:27;;;;;;;;;;;16.80;96.10;;;;;;7336009;19;110282;-62
2023/05/17 10:43:55;;;;;;;;;;;16.80;94.90;;;;;;7340840;19;110672;-62
2023/05/17 10:46:22;;;;;;;;;;;16.90;95.40;;;;;;7333465;19;110254;-62
2023/05/17 10:48:50;;;;;;;;;;;17.00;95.40;;;;;;7334704;19;110465;-62
2023/05/17 10:51:23;;;;;;;;;;;17.10;95.70;;;;;;7347773;19;109355;-62
2023/05/17 10:54:02;;;;;;;;;;;17.20;95.20;;;;;;7341494;19;111134;-62
2023/05/17 10:56:33;;;;;;;;;;;17.20;95.00;;;;;;7335713;19;110411;-62
2023/05/17 10:59:20;;;;;;;;;;;17.20;94.30;;;;;;7337502;19;109733;-62
2023/05/17 11:01:53;;;;;;;;;;;17.40;94.80;;;;;;7336677;19;110846;-62
2023/05/17 11:04:49;;;;;;;;;;;17.50;94.30;;;;;;7333456;19;111104;-62
2023/05/17 11:07:17;;;;;;;;;;;17.60;93.90;;;;;;7342108;19;110095;-61
2023/05/17 11:09:48;;;;;;;;;;;17.70;94.70;;;;;;7333255;19;110376;-62
2023/05/17 11:12:16;;;;;;;;;;;17.70;92.90;;;;;;7333725;19;109813;-62
2023/05/17 11:14:46;;;;;;;;;;;17.70;94.20;;;;;;7332671;19;111055;-62
2023/05/17 11:17:14;;;;;;;;;;;17.60;94.20;;;;;;7336637;19;109387;-62
2023/05/17 11:19:57;;;;;;;;;;;17.60;92.00;;;;;;7333744;19;109950;-62
2023/05/17 11:22:27;;;;;;;;;;;17.40;91.40;;;;;;7334297;19;110219;-64
2023/05/17 11:24:56;;;;;;;;;;;17.30;91.60;;;;;;7334248;19;110287;-62
2023/05/17 11:27:27;;;;;;;;;;;17.30;93.00;;;;;;7338756;19;109904;-62
2023/05/17 11:29:55;;;;;;;;;;;17.40;94.10;;;;;;7338215;19;110432;-62
2023/05/17 11:32:30;;;;;;;;;;;17.70;93.70;;;;;;7334925;19;109577;-62
2023/05/17 11:35:04;;;;;;;;;;;17.90;94.00;;;;;;7332787;19;110982;-63
2023/05/17 11:37:31;;;;;;;;;;;18.10;93.70;;;;;;7337092;19;111118;-62
2023/05/17 11:40:05;;;;;;;;;;;18.10;94.30;;;;;;7337071;19;110369;-62
2023/05/17 11:42:33;;;;;;;;;;;18.30;94.60;;;;;;7335578;19;110407;-62
2023/05/17 11:45:00;;;;;;;;;;;18.50;93.70;;;;;;7332900;19;110059;-62
2023/05/17 11:47:27;;;;;;;;;;;18.50;93.60;;;;;;7332875;19;109956;-62
2023/05/17 11:49:55;;;;;;;;;;;18.40;93.50;;;;;;7336541;19;111237;-62
2023/05/17 11:52:22;;;;;;;;;;;18.40;94.70;;;;;;7333618;19;110259;-62
2023/05/17 11:54:50;;;;;;;;;;;18.50;93.50;;;;;;7330511;19;110151;-62
2023/05/17 11:57:20;;;;;;;;;;;18.60;94.10;;;;;;7332716;19;110021;-62
2023/05/17 11:59:47;;;;;;;;;;;18.80;93.40;;;;;;7332323;19;110421;-63
2023/05/17 12:02:27;;;;;;;;;;;18.70;91.50;;;;;;7334454;19;110182;-63
2023/05/17 12:04:55;;;;;;;;;;;18.70;91.80;;;;;;7334990;19;109312;-62
2023/05/17 12:07:24;;;;;;;;;;;18.80;92.80;;;;;;7334105;19;110251;-62
2023/05/17 12:09:51;;;;;;;;;;;18.80;91.70;;;;;;7332471;19;110615;-62
2023/05/17 12:12:20;;;;;;;;;;;18.80;88.90;;;;;;7336765;19;110052;-62
2023/05/17 12:14:49;;;;;;;;;;;18.70;89.20;;;;;;7333578;19;110082;-62
2023/05/17 12:17:27;;;;;;;;;;;18.50;88.00;;;;;;7334119;19;109749;-62
2023/05/17 12:19:54;;;;;;;;;;;18.40;88.80;;;;;;7332745;19;110016;-62
2023/05/17 12:22:21;;;;;;;;;;;18.30;87.60;;;;;;7330226;19;111214;-62
2023/05/17 12:24:49;;;;;;;;;;;18.30;87.20;;;;;;7329651;19;110922;-63
2023/05/17 12:27:23;;;;;;;;;;;18.40;90.50;;;;;;7330584;19;111374;-63
2023/05/17 12:29:52;;;;;;;;;;;19.00;90.10;;;;;;7328370;19;110127;-63
2023/05/17 12:32:19;;;;;;;;;;;19.20;89.00;;;;;;7330248;19;111144;-63
2023/05/17 12:34:48;;;;;;;;;;;19.20;89.40;;;;;;7336011;19;110222;-64
2023/05/17 12:37:15;;;;;;;;;;;19.30;89.70;;;;;;7330441;19;109898;-63
2023/05/17 12:39:42;;;;;;;;;;;19.50;90.40;;;;;;7329112;19;109695;-64
2023/05/17 12:42:10;;;;;;;;;;;19.50;88.90;;;;;;7331260;19;110604;-62
2023/05/17 12:44:37;;;;;;;;;;;19.50;89.80;;;;;;7335461;19;110471;-63
2023/05/17 12:47:05;;;;;;;;;;;19.50;88.80;;;;;;7341721;19;110151;-63
2023/05/17 12:49:36;;;;;;;;;;;19.50;90.40;;;;;;7337946;19;110130;-63
2023/05/17 12:52:04;;;;;;;;;;;19.70;91.00;;;;;;7339761;19;111808;-63
2023/05/17 12:54:31;;;;;;;;;;;19.90;91.00;;;;;;7341009;19;110108;-63
2023/05/17 12:57:08;;;;;;;;;;;19.90;88.60;;;;;;7343474;19;110178;-63
2023/05/17 12:59:48;;;;;;;;;;;19.80;89.90;;;;;;7339764;19;110860;-64
2023/05/17 13:02:16;;;;;;;;;;;19.80;89.70;;;;;;7337125;19;110059;-64
2023/05/17 13:04:43;;;;;;;;;;;19.90;89.20;;;;;;7339840;19;109669;-63
2023/05/17 13:07:10;;;;;;;;;;;20.00;90.60;;;;;;7338229;19;110766;-63
2023/05/17 13:09:47;;;;;;;;;;;20.00;90.60;;;;;;7337192;19;110393;-64
2023/05/17 13:12:21;;;;;;;;;;;20.10;90.30;;;;;;7338415;19;111908;-63
2023/05/17 13:14:50;;;;;;;;;;;19.90;87.10;;;;;;7338655;19;110307;-63
2023/05/17 13:17:23;;;;;;;;;;;19.70;88.40;;;;;;7339987;19;110390;-63
2023/05/17 13:19:51;;;;;;;;;;;19.50;87.10;;;;;;7346541;19;109249;-63
2023/05/17 13:22:18;;;;;;;;;;;19.40;90.00;;;;;;7341107;19;110772;-63
2023/05/17 13:24:45;;;;;;;;;;;19.30;87.70;;;;;;7337722;19;109457;-63
2023/05/17 13:27:12;;;;;;;;;;;19.30;89.50;;;;;;7336942;19;109711;-63
2023/05/17 13:29:40;;;;;;;;;;;19.50;89.30;;;;;;7337072;19;111247;-63
2023/05/17 13:32:08;;;;;;;;;;;19.70;87.60;;;;;;7333890;19;109702;-64
2023/05/17 13:34:35;;;;;;;;;;;19.80;87.30;;;;;;7340313;19;109685;-63
2023/05/17 13:37:03;;;;;;;;;;;19.80;87.30;;;;;;7333675;19;110657;-64
2023/05/17 13:39:30;;;;;;;;;;;20.00;86.40;;;;;;7343088;19;110011;-64
2023/05/17 13:41:57;;;;;;;;;;;20.10;89.80;;;;;;7335201;19;110615;-63
2023/05/17 13:44:25;;;;;;;;;;;20.20;84.70;;;;;;7331576;19;110336;-63
2023/05/17 13:46:52;;;;;;;;;;;20.10;86.60;;;;;;7331860;19;109695;-64
2023/05/17 13:49:19;;;;;;;;;;;20.00;85.00;;;;;;7317796;19;111101;-64
2023/05/17 13:51:46;;;;;;;;;;;19.70;86.10;;;;;;7335983;19;112066;-64
2023/05/17 13:54:13;;;;;;;;;;;19.60;87.10;;;;;;7337810;19;111339;-64
2023/05/17 13:56:40;;;;;;;;;;;19.60;86.40;;;;;;7336732;19;111203;-64
2023/05/17 13:59:07;;;;;;;;;;;19.60;87.40;;;;;;7338064;19;110628;-63
2023/05/17 14:01:34;;;;;;;;;;;19.70;86.80;;;;;;7341991;19;109787;-63
2023/05/17 14:04:02;;;;;;;;;;;19.80;88.50;;;;;;7337048;19;111022;-64
2023/05/17 14:06:29;;;;;;;;;;;20.00;89.90;;;;;;7335640;19;109778;-64
2023/05/17 14:08:58;;;;;;;;;;;20.10;86.10;;;;;;7335736;19;111299;-63
2023/05/17 14:11:25;;;;;;;;;;;20.00;87.40;;;;;;7333247;19;109620;-63
2023/05/17 14:13:52;;;;;;;;;;;20.10;89.80;;;;;;7337613;19;109532;-63
2023/05/17 14:16:21;;;;;;;;;;;20.30;88.80;;;;;;7334219;19;111765;-63
2023/05/17 14:18:48;;;;;;;;;;;20.30;86.10;;;;;;7335743;19;109623;-64